sensor_id;sensor_type;location;lat;lon;timestamp;P1;P2;P0
77320;PMS7003;66382;52.252;8.780;2023-05-16T00:01:22;11.33;11.33;9.00
77320;PMS7003;66382;52.252;8.780;2023-05-16T00:03:48;7.67;7.67;7.33
77320;PMS7003;66382;52.252;8.780;2023-05-16T00:06:14;11.00;11.00;9.00
77320;PMS7003;66382;52.252;8.780;2023-05-16T00:08:39;11.00;11.00;8.00
77320;PMS7003;66382;52.252;8.780;2023-05-16T00:11:06;11.00;11.00;9.00
77320;PMS7003;66382;52.252;8.780;2023-05-16T00:13:32;10.33;10.33;8.00
77320;PMS7003;66382;52.252;8.780;2023-05-16T00:15:58;7.33;7.33;6.00
77320;PMS7003;66382;52.252;8.780;2023-05-16T00:18:23;10.67;10.00;7.67
77320;PMS7003;66382;52.252;8.780;2023-05-16T00:20:49;6.67;6.67;5.33
77320;PMS7003;66382;52.252;8.780;2023-05-16T00:23:15;10.00;10.00;8.33
77320;PMS7003;66382;52.252;8.780;2023-05-16T00:25:41;10.25;10.25;9.00
77320;PMS7003;66382;52.252;8.780;2023-05-16T00:28:08;11.00;11.00;9.00
77320;PMS7003;66382;52.252;8.780;2023-05-16T00:30:33;9.00;9.00;7.67
77320;PMS7003;66382;52.252;8.780;2023-05-16T00:32:59;9.00;9.00;7.00
77320;PMS7003;66382;52.252;8.780;2023-05-16T00:35:25;11.00;11.00;9.50
77320;PMS7003;66382;52.252;8.780;2023-05-16T00:37:51;10.00;10.00;8.00
77320;PMS7003;66382;52.252;8.780;2023-05-16T00:40:17;10.00;10.00;7.00
77320;PMS7003;66382;52.252;8.780;2023-05-16T00:42:42;10.00;10.00;8.00
77320;PMS7003;66382;52.252;8.780;2023-05-16T00:45:10;7.67;7.67;7.00
77320;PMS7003;66382;52.252;8.780;2023-05-16T00:47:36;9.67;9.67;7.33
77320;PMS7003;66382;52.252;8.780;2023-05-16T00:50:01;10.25;10.25;7.25
77320;PMS7003;66382;52.252;8.780;2023-05-16T00:52:28;10.67;10.67;8.00
77320;PMS7003;66382;52.252;8.780;2023-05-16T00:54:54;10.00;10.00;7.00
77320;PMS7003;66382;52.252;8.780;2023-05-16T00:57:21;12.75;12.75;8.75
77320;PMS7003;66382;52.252;8.780;2023-05-16T00:59:47;7.00;7.00;5.33
77320;PMS7003;66382;52.252;8.780;2023-05-16T01:02:15;10.25;10.25;8.00
77320;PMS7003;66382;52.252;8.780;2023-05-16T01:04:41;10.00;10.00;8.67
77320;PMS7003;66382;52.252;8.780;2023-05-16T01:07:07;9.00;9.00;6.33
77320;PMS7003;66382;52.252;8.780;2023-05-16T01:09:33;7.00;7.00;5.00
77320;PMS7003;66382;52.252;8.780;2023-05-16T01:12:01;10.33;10.33;7.00
77320;PMS7003;66382;52.252;8.780;2023-05-16T01:14:37;8.67;8.67;7.00
77320;PMS7003;66382;52.252;8.780;2023-05-16T01:17:12;9.00;9.00;7.00
77320;PMS7003;66382;52.252;8.780;2023-05-16T01:19:57;8.00;8.00;7.00
77320;PMS7003;66382;52.252;8.780;2023-05-16T01:22:28;9.00;9.00;8.00
77320;PMS7003;66382;52.252;8.780;2023-05-16T01:25:04;8.33;8.33;7.33
77320;PMS7003;66382;52.252;8.780;2023-05-16T01:27:37;7.67;7.67;6.00
77320;PMS7003;66382;52.252;8.780;2023-05-16T01:30:12;8.00;8.00;6.00
77320;PMS7003;66382;52.252;8.780;2023-05-16T01:32:39;5.00;5.00;4.00
77320;PMS7003;66382;52.252;8.780;2023-05-16T01:35:04;6.00;6.00;4.00
77320;PMS7003;66382;52.252;8.780;2023-05-16T01:37:34;7.33;7.33;5.00
77320;PMS7003;66382;52.252;8.780;2023-05-16T01:40:06;4.67;4.67;4.00
77320;PMS7003;66382;52.252;8.780;2023-05-16T01:42:38;4.00;4.00;3.67
77320;PMS7003;66382;52.252;8.780;2023-05-16T01:45:11;4.00;4.00;3.00
77320;PMS7003;66382;52.252;8.780;2023-05-16T01:47:43;4.33;4.33;3.67
77320;PMS7003;66382;52.252;8.780;2023-05-16T01:50:14;4.67;4.67;4.00
77320;PMS7003;66382;52.252;8.780;2023-05-16T01:52:42;4.00;4.00;3.33
77320;PMS7003;66382;52.252;8.780;2023-05-16T01:55:14;4.33;4.33;3.67
77320;PMS7003;66382;52.252;8.780;2023-05-16T01:57:44;4.67;4.67;3.67
77320;PMS7003;66382;52.252;8.780;2023-05-16T02:00:11;4.00;4.00;3.67
77320;PMS7003;66382;52.252;8.780;2023-05-16T02:02:37;3.33;3.33;3.00
77320;PMS7003;66382;52.252;8.780;2023-05-16T02:05:03;3.00;3.00;3.00
77320;PMS7003;66382;52.252;8.780;2023-05-16T02:07:29;3.00;3.00;2.00
77320;PMS7003;66382;52.252;8.780;2023-05-16T02:09:55;3.00;3.00;2.00
77320;PMS7003;66382;52.252;8.780;2023-05-16T02:12:20;4.00;4.00;3.33
77320;PMS7003;66382;52.252;8.780;2023-05-16T02:14:48;4.00;4.00;4.00
77320;PMS7003;66382;52.252;8.780;2023-05-16T02:17:13;3.00;3.00;3.00
77320;PMS7003;66382;52.252;8.780;2023-05-16T02:19:39;3.00;3.00;2.33
77320;PMS7003;66382;52.252;8.780;2023-05-16T02:22:05;4.33;4.33;4.00
77320;PMS7003;66382;52.252;8.780;2023-05-16T02:24:30;3.00;3.00;3.00
77320;PMS7003;66382;52.252;8.780;2023-05-16T02:26:56;4.00;4.00;3.00
77320;PMS7003;66382;52.252;8.780;2023-05-16T02:29:22;4.00;4.00;3.00
77320;PMS7003;66382;52.252;8.780;2023-05-16T02:31:50;3.00;3.00;3.00
77320;PMS7003;66382;52.252;8.780;2023-05-16T02:34:15;3.00;3.00;3.00
77320;PMS7003;66382;52.252;8.780;2023-05-16T02:36:41;3.00;3.00;2.00
77320;PMS7003;66382;52.252;8.780;2023-05-16T02:39:07;4.00;4.00;3.33
77320;PMS7003;66382;52.252;8.780;2023-05-16T02:41:32;3.67;3.67;3.00
77320;PMS7003;66382;52.252;8.780;2023-05-16T02:43:58;2.00;2.00;2.00
77320;PMS7003;66382;52.252;8.780;2023-05-16T02:46:24;3.00;3.00;3.00
77320;PMS7003;66382;52.252;8.780;2023-05-16T02:48:53;3.00;3.00;2.00
77320;PMS7003;66382;52.252;8.780;2023-05-16T02:51:19;2.00;2.00;2.00
77320;PMS7003;66382;52.252;8.780;2023-05-16T02:53:46;3.00;3.00;3.00
77320;PMS7003;66382;52.252;8.780;2023-05-16T02:56:11;3.00;3.00;2.00
77320;PMS7003;66382;52.252;8.780;2023-05-16T02:58:37;3.00;3.00;3.00
77320;PMS7003;66382;52.252;8.780;2023-05-16T03:01:03;4.00;4.00;2.67
77320;PMS7003;66382;52.252;8.780;2023-05-16T03:03:29;2.00;2.00;2.00
77320;PMS7003;66382;52.252;8.780;2023-05-16T03:05:56;1.00;1.00;1.00
77320;PMS7003;66382;52.252;8.780;2023-05-16T03:08:21;4.00;4.00;3.00
77320;PMS7003;66382;52.252;8.780;2023-05-16T03:10:47;3.00;3.00;2.00
77320;PMS7003;66382;52.252;8.780;2023-05-16T03:13:13;3.00;3.00;2.00
77320;PMS7003;66382;52.252;8.780;2023-05-16T03:15:38;3.00;3.00;2.33
77320;PMS7003;66382;52.252;8.780;2023-05-16T03:18:04;3.00;3.00;3.00
77320;PMS7003;66382;52.252;8.780;2023-05-16T03:20:30;2.33;2.33;2.00
77320;PMS7003;66382;52.252;8.780;2023-05-16T03:22:57;2.00;2.00;2.00
77320;PMS7003;66382;52.252;8.780;2023-05-16T03:25:22;4.00;4.00;3.00
77320;PMS7003;66382;52.252;8.780;2023-05-16T03:27:48;3.00;3.00;3.00
77320;PMS7003;66382;52.252;8.780;2023-05-16T03:30:14;3.00;3.00;3.00
77320;PMS7003;66382;52.252;8.780;2023-05-16T03:32:40;2.00;2.00;1.67
77320;PMS7003;66382;52.252;8.780;2023-05-16T03:35:06;4.00;4.00;3.00
77320;PMS7003;66382;52.252;8.780;2023-05-16T03:37:32;3.00;3.00;2.00
77320;PMS7003;66382;52.252;8.780;2023-05-16T03:39:59;4.00;4.00;3.25
77320;PMS7003;66382;52.252;8.780;2023-05-16T03:42:25;2.33;2.33;2.00
77320;PMS7003;66382;52.252;8.780;2023-05-16T03:44:51;3.00;3.00;3.00
77320;PMS7003;66382;52.252;8.780;2023-05-16T03:47:16;2.67;2.67;2.33
77320;PMS7003;66382;52.252;8.780;2023-05-16T03:49:42;4.00;4.00;2.67
77320;PMS7003;66382;52.252;8.780;2023-05-16T03:52:08;3.00;3.00;2.67
77320;PMS7003;66382;52.252;8.780;2023-05-16T03:54:33;2.67;2.67;2.00
77320;PMS7003;66382;52.252;8.780;2023-05-16T03:57:01;3.00;3.00;2.00
77320;PMS7003;66382;52.252;8.780;2023-05-16T03:59:26;4.00;2.75;2.00
77320;PMS7003;66382;52.252;8.780;2023-05-16T04:01:52;4.00;4.00;3.00
77320;PMS7003;66382;52.252;8.780;2023-05-16T04:04:18;2.50;2.50;2.00
77320;PMS7003;66382;52.252;8.780;2023-05-16T04:06:43;2.67;2.67;2.67
77320;PMS7003;66382;52.252;8.780;2023-05-16T04:09:09;3.00;3.00;3.00
77320;PMS7003;66382;52.252;8.780;2023-05-16T04:11:35;3.00;3.00;2.00
77320;PMS7003;66382;52.252;8.780;2023-05-16T04:14:02;4.00;4.00;3.00
77320;PMS7003;66382;52.252;8.780;2023-05-16T04:16:27;3.33;3.33;3.00
77320;PMS7003;66382;52.252;8.780;2023-05-16T04:18:53;3.33;3.33;2.33
77320;PMS7003;66382;52.252;8.780;2023-05-16T04:21:19;4.00;4.00;3.00
77320;PMS7003;66382;52.252;8.780;2023-05-16T04:23:44;2.67;2.67;2.00
77320;PMS7003;66382;52.252;8.780;2023-05-16T04:26:10;2.00;2.00;2.00
77320;PMS7003;66382;52.252;8.780;2023-05-16T04:28:36;3.00;3.00;2.00
77320;PMS7003;66382;52.252;8.780;2023-05-16T04:31:03;2.00;2.00;1.67
77320;PMS7003;66382;52.252;8.780;2023-05-16T04:33:28;2.25;2.25;2.00
77320;PMS7003;66382;52.252;8.780;2023-05-16T04:35:54;3.50;3.50;3.00
77320;PMS7003;66382;52.252;8.780;2023-05-16T04:38:20;2.00;2.00;1.75
77320;PMS7003;66382;52.252;8.780;2023-05-16T04:40:46;3.00;3.00;2.00
77320;PMS7003;66382;52.252;8.780;2023-05-16T04:43:11;3.50;3.50;2.00
77320;PMS7003;66382;52.252;8.780;2023-05-16T04:45:37;2.50;2.50;2.00
77320;PMS7003;66382;52.252;8.780;2023-05-16T04:48:04;1.00;1.00;1.00
77320;PMS7003;66382;52.252;8.780;2023-05-16T04:50:30;2.25;2.25;1.50
77320;PMS7003;66382;52.252;8.780;2023-05-16T04:52:56;2.00;2.00;2.00
77320;PMS7003;66382;52.252;8.780;2023-05-16T04:55:21;2.75;2.75;2.00
77320;PMS7003;66382;52.252;8.780;2023-05-16T04:57:47;2.00;2.00;2.00
77320;PMS7003;66382;52.252;8.780;2023-05-16T05:00:13;2.00;2.00;1.00
77320;PMS7003;66382;52.252;8.780;2023-05-16T05:02:39;3.00;3.00;2.00
77320;PMS7003;66382;52.252;8.780;2023-05-16T05:05:07;1.00;1.00;1.00
77320;PMS7003;66382;52.252;8.780;2023-05-16T05:07:33;1.75;1.75;1.25
77320;PMS7003;66382;52.252;8.780;2023-05-16T05:09:59;2.75;2.75;1.25
77320;PMS7003;66382;52.252;8.780;2023-05-16T05:12:24;1.33;1.33;1.00
77320;PMS7003;66382;52.252;8.780;2023-05-16T05:14:50;1.00;1.00;1.00
77320;PMS7003;66382;52.252;8.780;2023-05-16T05:17:16;1.25;1.25;1.00
77320;PMS7003;66382;52.252;8.780;2023-05-16T05:19:42;3.00;3.00;2.00
77320;PMS7003;66382;52.252;8.780;2023-05-16T05:22:09;2.75;2.75;1.75
77320;PMS7003;66382;52.252;8.780;2023-05-16T05:24:34;2.75;2.75;2.00
77320;PMS7003;66382;52.252;8.780;2023-05-16T05:27:00;1.50;1.50;1.00
77320;PMS7003;66382;52.252;8.780;2023-05-16T05:29:26;4.00;2.00;1.00
77320;PMS7003;66382;52.252;8.780;2023-05-16T05:31:51;2.25;2.25;2.00
77320;PMS7003;66382;52.252;8.780;2023-05-16T05:34:17;2.00;2.00;1.50
77320;PMS7003;66382;52.252;8.780;2023-05-16T05:36:43;1.75;1.75;1.50
77320;PMS7003;66382;52.252;8.780;2023-05-16T05:39:10;1.00;1.00;0.67
77320;PMS7003;66382;52.252;8.780;2023-05-16T05:41:36;1.00;1.00;0.25
77320;PMS7003;66382;52.252;8.780;2023-05-16T05:44:02;2.33;2.33;2.00
77320;PMS7003;66382;52.252;8.780;2023-05-16T05:46:28;2.00;2.00;1.00
77320;PMS7003;66382;52.252;8.780;2023-05-16T05:48:54;1.00;1.00;1.00
77320;PMS7003;66382;52.252;8.780;2023-05-16T05:51:20;2.00;2.00;1.25
77320;PMS7003;66382;52.252;8.780;2023-05-16T05:53:46;1.75;1.75;1.00
77320;PMS7003;66382;52.252;8.780;2023-05-16T05:56:13;2.00;2.00;1.50
77320;PMS7003;66382;52.252;8.780;2023-05-16T05:58:38;1.00;1.00;1.00
77320;PMS7003;66382;52.252;8.780;2023-05-16T06:01:04;1.00;1.00;1.00
77320;PMS7003;66382;52.252;8.780;2023-05-16T06:03:30;2.33;2.33;1.33
77320;PMS7003;66382;52.252;8.780;2023-05-16T06:05:55;1.00;1.00;1.00
77320;PMS7003;66382;52.252;8.780;2023-05-16T06:08:21;2.00;2.00;2.00
77320;PMS7003;66382;52.252;8.780;2023-05-16T06:10:47;1.00;1.00;1.00
77320;PMS7003;66382;52.252;8.780;2023-05-16T06:13:14;1.67;1.67;1.00
77320;PMS7003;66382;52.252;8.780;2023-05-16T06:15:39;2.00;2.00;1.67
77320;PMS7003;66382;52.252;8.780;2023-05-16T06:18:05;2.00;2.00;1.00
77320;PMS7003;66382;52.252;8.780;2023-05-16T06:20:31;3.00;3.00;2.00
77320;PMS7003;66382;52.252;8.780;2023-05-16T06:22:56;2.00;2.00;1.00
77320;PMS7003;66382;52.252;8.780;2023-05-16T06:25:22;1.67;1.67;1.33
77320;PMS7003;66382;52.252;8.780;2023-05-16T06:27:48;1.00;1.00;0.00
77320;PMS7003;66382;52.252;8.780;2023-05-16T06:30:15;2.00;2.00;1.67
77320;PMS7003;66382;52.252;8.780;2023-05-16T06:32:41;1.00;1.00;1.00
77320;PMS7003;66382;52.252;8.780;2023-05-16T06:35:07;2.00;2.00;1.33
77320;PMS7003;66382;52.252;8.780;2023-05-16T06:37:33;1.33;1.33;1.33
77320;PMS7003;66382;52.252;8.780;2023-05-16T06:39:58;2.00;2.00;1.67
77320;PMS7003;66382;52.252;8.780;2023-05-16T06:42:24;2.00;2.00;1.67
77320;PMS7003;66382;52.252;8.780;2023-05-16T06:44:50;1.00;1.00;1.00
77320;PMS7003;66382;52.252;8.780;2023-05-16T06:47:17;3.33;3.33;1.67
77320;PMS7003;66382;52.252;8.780;2023-05-16T06:49:43;1.33;1.33;1.00
77320;PMS7003;66382;52.252;8.780;2023-05-16T06:52:08;1.67;1.67;1.00
77320;PMS7003;66382;52.252;8.780;2023-05-16T06:54:34;2.00;2.00;1.00
77320;PMS7003;66382;52.252;8.780;2023-05-16T06:57:00;1.00;1.00;1.00
77320;PMS7003;66382;52.252;8.780;2023-05-16T06:59:25;1.00;1.00;1.00
77320;PMS7003;66382;52.252;8.780;2023-05-16T07:01:51;2.67;2.00;2.00
77320;PMS7003;66382;52.252;8.780;2023-05-16T07:04:18;2.33;2.33;2.00
77320;PMS7003;66382;52.252;8.780;2023-05-16T07:06:44;2.00;2.00;1.33
77320;PMS7003;66382;52.252;8.780;2023-05-16T07:09:09;2.00;2.00;2.00
77320;PMS7003;66382;52.252;8.780;2023-05-16T07:11:35;1.00;1.00;1.00
77320;PMS7003;66382;52.252;8.780;2023-05-16T07:14:01;2.00;2.00;1.00
77320;PMS7003;66382;52.252;8.780;2023-05-16T07:16:26;2.00;2.00;1.33
77320;PMS7003;66382;52.252;8.780;2023-05-16T07:18:52;1.67;1.67;1.00
77320;PMS7003;66382;52.252;8.780;2023-05-16T07:21:19;2.00;2.00;1.33
77320;PMS7003;66382;52.252;8.780;2023-05-16T07:23:45;0.75;0.75;0.75
77320;PMS7003;66382;52.252;8.780;2023-05-16T07:26:11;1.00;1.00;1.00
77320;PMS7003;66382;52.252;8.780;2023-05-16T07:28:36;1.33;1.33;1.33
77320;PMS7003;66382;52.252;8.780;2023-05-16T07:31:02;0.33;0.33;0.00
77320;PMS7003;66382;52.252;8.780;2023-05-16T07:33:28;0.67;0.67;0.67
77320;PMS7003;66382;52.252;8.780;2023-05-16T07:35:53;0.67;0.67;0.67
77320;PMS7003;66382;52.252;8.780;2023-05-16T07:38:21;1.00;1.00;1.00
77320;PMS7003;66382;52.252;8.780;2023-05-16T07:40:46;0.75;0.75;0.75
77320;PMS7003;66382;52.252;8.780;2023-05-16T07:43:12;1.67;1.67;1.33
77320;PMS7003;66382;52.252;8.780;2023-05-16T07:45:38;0.67;0.67;0.67
77320;PMS7003;66382;52.252;8.780;2023-05-16T07:48:03;0.67;0.67;0.00
77320;PMS7003;66382;52.252;8.780;2023-05-16T07:50:29;1.00;1.00;0.67
77320;PMS7003;66382;52.252;8.780;2023-05-16T07:52:55;1.00;1.00;1.00
77320;PMS7003;66382;52.252;8.780;2023-05-16T07:55:22;1.67;1.67;0.67
77320;PMS7003;66382;52.252;8.780;2023-05-16T07:57:48;1.00;1.00;0.50
77320;PMS7003;66382;52.252;8.780;2023-05-16T08:00:14;1.75;1.75;1.00
77320;PMS7003;66382;52.252;8.780;2023-05-16T08:02:41;1.00;1.00;1.00
77320;PMS7003;66382;52.252;8.780;2023-05-16T08:05:07;1.00;1.00;1.00
77320;PMS7003;66382;52.252;8.780;2023-05-16T08:07:33;1.00;1.00;1.00
77320;PMS7003;66382;52.252;8.780;2023-05-16T08:09:59;1.00;1.00;1.00
77320;PMS7003;66382;52.252;8.780;2023-05-16T08:12:26;1.00;1.00;0.00
77320;PMS7003;66382;52.252;8.780;2023-05-16T08:14:52;0.00;0.00;0.00
77320;PMS7003;66382;52.252;8.780;2023-05-16T08:17:17;1.00;1.00;1.00
77320;PMS7003;66382;52.252;8.780;2023-05-16T08:19:43;1.00;1.00;1.00
77320;PMS7003;66382;52.252;8.780;2023-05-16T08:22:09;0.00;0.00;0.00
77320;PMS7003;66382;52.252;8.780;2023-05-16T08:24:34;0.00;0.00;0.00
77320;PMS7003;66382;52.252;8.780;2023-05-16T08:27:00;1.00;1.00;1.00
77320;PMS7003;66382;52.252;8.780;2023-05-16T08:29:27;0.00;0.00;0.00
77320;PMS7003;66382;52.252;8.780;2023-05-16T08:31:53;0.25;0.25;0.00
77320;PMS7003;66382;52.252;8.780;2023-05-16T08:34:18;0.75;0.75;0.25
77320;PMS7003;66382;52.252;8.780;2023-05-16T08:36:44;0.50;0.50;0.50
77320;PMS7003;66382;52.252;8.780;2023-05-16T08:39:10;1.00;1.00;1.00
77320;PMS7003;66382;52.252;8.780;2023-05-16T08:41:35;1.00;1.00;0.00
77320;PMS7003;66382;52.252;8.780;2023-05-16T08:44:01;0.00;0.00;0.00
77320;PMS7003;66382;52.252;8.780;2023-05-16T08:46:29;0.00;0.00;0.00
77320;PMS7003;66382;52.252;8.780;2023-05-16T08:48:58;1.00;1.00;0.60
77320;PMS7003;66382;52.252;8.780;2023-05-16T08:51:24;1.00;1.00;1.00
77320;PMS7003;66382;52.252;8.780;2023-05-16T08:53:53;0.00;0.00;0.00
77320;PMS7003;66382;52.252;8.780;2023-05-16T08:56:24;0.00;0.00;0.00
77320;PMS7003;66382;52.252;8.780;2023-05-16T08:58:50;1.00;1.00;1.00
77320;PMS7003;66382;52.252;8.780;2023-05-16T09:01:16;0.00;0.00;0.00
77320;PMS7003;66382;52.252;8.780;2023-05-16T09:03:44;0.40;0.40;0.40
77320;PMS7003;66382;52.252;8.780;2023-05-16T09:06:10;0.80;0.80;0.60
77320;PMS7003;66382;52.252;8.780;2023-05-16T09:08:36;1.00;1.00;1.00
77320;PMS7003;66382;52.252;8.780;2023-05-16T09:11:02;2.00;2.00;1.00
77320;PMS7003;66382;52.252;8.780;2023-05-16T09:13:28;0.60;0.60;0.00
77320;PMS7003;66382;52.252;8.780;2023-05-16T09:18:45;1.00;1.00;1.00
77320;PMS7003;66382;52.252;8.780;2023-05-16T09:21:17;2.00;2.00;1.80
77320;PMS7003;66382;52.252;8.780;2023-05-16T09:23:43;1.00;1.00;1.00
77320;PMS7003;66382;52.252;8.780;2023-05-16T09:26:12;1.00;1.00;1.00
77320;PMS7003;66382;52.252;8.780;2023-05-16T09:28:38;1.00;1.00;0.75
77320;PMS7003;66382;52.252;8.780;2023-05-16T09:31:07;1.00;1.00;1.00
77320;PMS7003;66382;52.252;8.780;2023-05-16T09:33:45;0.80;0.80;0.80
77320;PMS7003;66382;52.252;8.780;2023-05-16T09:36:11;0.00;0.00;0.00
77320;PMS7003;66382;52.252;8.780;2023-05-16T09:38:37;1.00;1.00;0.50
77320;PMS7003;66382;52.252;8.780;2023-05-16T09:41:03;1.00;1.00;1.00
77320;PMS7003;66382;52.252;8.780;2023-05-16T09:43:28;1.00;1.00;1.00
77320;PMS7003;66382;52.252;8.780;2023-05-16T09:45:55;1.00;1.00;0.75
77320;PMS7003;66382;52.252;8.780;2023-05-16T09:48:23;1.00;1.00;1.00
77320;PMS7003;66382;52.252;8.780;2023-05-16T09:50:52;1.00;1.00;0.00
77320;PMS7003;66382;52.252;8.780;2023-05-16T09:53:23;1.75;1.75;1.00
77320;PMS7003;66382;52.252;8.780;2023-05-16T09:55:58;1.75;1.75;1.00
77320;PMS7003;66382;52.252;8.780;2023-05-16T09:58:27;1.75;1.75;1.00
77320;PMS7003;66382;52.252;8.780;2023-05-16T10:00:53;1.00;1.00;0.75
77320;PMS7003;66382;52.252;8.780;2023-05-16T10:03:20;0.00;0.00;0.00
77320;PMS7003;66382;52.252;8.780;2023-05-16T10:05:47;0.75;0.75;0.00
77320;PMS7003;66382;52.252;8.780;2023-05-16T10:08:14;1.00;1.00;0.67
77320;PMS7003;66382;52.252;8.780;2023-05-16T10:10:40;0.25;0.25;0.00
77320;PMS7003;66382;52.252;8.780;2023-05-16T10:13:07;1.00;1.00;1.00
77320;PMS7003;66382;52.252;8.780;2023-05-16T10:15:35;1.00;1.00;0.25
77320;PMS7003;66382;52.252;8.780;2023-05-16T10:18:02;1.00;1.00;1.00
77320;PMS7003;66382;52.252;8.780;2023-05-16T10:20:28;1.00;1.00;0.75
77320;PMS7003;66382;52.252;8.780;2023-05-16T10:22:54;1.00;1.00;1.00
77320;PMS7003;66382;52.252;8.780;2023-05-16T10:25:23;0.00;0.00;0.00
77320;PMS7003;66382;52.252;8.780;2023-05-16T10:27:53;0.00;0.00;0.00
77320;PMS7003;66382;52.252;8.780;2023-05-16T10:30:19;0.00;0.00;0.00
77320;PMS7003;66382;52.252;8.780;2023-05-16T10:32:45;1.00;1.00;1.00
77320;PMS7003;66382;52.252;8.780;2023-05-16T10:35:14;0.50;0.50;0.50
77320;PMS7003;66382;52.252;8.780;2023-05-16T10:37:40;0.00;0.00;0.00
77320;PMS7003;66382;52.252;8.780;2023-05-16T10:40:07;0.00;0.00;0.00
77320;PMS7003;66382;52.252;8.780;2023-05-16T10:42:35;0.75;0.75;0.75
77320;PMS7003;66382;52.252;8.780;2023-05-16T10:45:16;0.50;0.50;0.00
77320;PMS7003;66382;52.252;8.780;2023-05-16T10:47:50;0.25;0.25;0.00
77320;PMS7003;66382;52.252;8.780;2023-05-16T10:50:29;0.00;0.00;0.00
77320;PMS7003;66382;52.252;8.780;2023-05-16T10:52:56;0.00;0.00;0.00
77320;PMS7003;66382;52.252;8.780;2023-05-16T10:55:35;0.00;0.00;0.00
77320;PMS7003;66382;52.252;8.780;2023-05-16T10:58:02;0.00;0.00;0.00
77320;PMS7003;66382;52.252;8.780;2023-05-16T11:00:28;0.00;0.00;0.00
77320;PMS7003;66382;52.252;8.780;2023-05-16T11:02:55;0.00;0.00;0.00
77320;PMS7003;66382;52.252;8.780;2023-05-16T11:05:29;1.00;1.00;1.00
77320;PMS7003;66382;52.252;8.780;2023-05-16T11:08:01;1.00;1.00;1.00
77320;PMS7003;66382;52.252;8.780;2023-05-16T11:10:27;0.75;0.75;0.25
77320;PMS7003;66382;52.252;8.780;2023-05-16T11:12:53;0.00;0.00;0.00
77320;PMS7003;66382;52.252;8.780;2023-05-16T11:15:21;1.00;1.00;0.67
77320;PMS7003;66382;52.252;8.780;2023-05-16T11:17:49;0.50;0.50;0.00
77320;PMS7003;66382;52.252;8.780;2023-05-16T11:20:24;1.00;1.00;0.00
77320;PMS7003;66382;52.252;8.780;2023-05-16T11:22:51;0.00;0.00;0.00
77320;PMS7003;66382;52.252;8.780;2023-05-16T11:25:47;1.00;1.00;1.00
77320;PMS7003;66382;52.252;8.780;2023-05-16T11:28:16;1.00;1.00;0.50
77320;PMS7003;66382;52.252;8.780;2023-05-16T11:30:45;1.00;1.00;1.00
77320;PMS7003;66382;52.252;8.780;2023-05-16T11:33:12;0.00;0.00;0.00
77320;PMS7003;66382;52.252;8.780;2023-05-16T11:35:38;0.00;0.00;0.00
77320;PMS7003;66382;52.252;8.780;2023-05-16T11:38:03;1.00;1.00;0.00
77320;PMS7003;66382;52.252;8.780;2023-05-16T11:40:29;0.00;0.00;0.00
77320;PMS7003;66382;52.252;8.780;2023-05-16T11:42:58;0.00;0.00;0.00
77320;PMS7003;66382;52.252;8.780;2023-05-16T11:45:24;0.00;0.00;0.00
77320;PMS7003;66382;52.252;8.780;2023-05-16T11:47:52;0.33;0.33;0.33
77320;PMS7003;66382;52.252;8.780;2023-05-16T11:50:18;1.00;1.00;1.00
77320;PMS7003;66382;52.252;8.780;2023-05-16T11:52:45;1.00;1.00;1.00
77320;PMS7003;66382;52.252;8.780;2023-05-16T11:55:12;0.25;0.00;0.00
77320;PMS7003;66382;52.252;8.780;2023-05-16T11:57:38;1.00;1.00;0.33
77320;PMS7003;66382;52.252;8.780;2023-05-16T12:00:07;0.75;0.75;0.50
77320;PMS7003;66382;52.252;8.780;2023-05-16T12:02:41;0.25;0.25;0.00
77320;PMS7003;66382;52.252;8.780;2023-05-16T12:05:08;0.67;0.67;0.33
77320;PMS7003;66382;52.252;8.780;2023-05-16T12:07:34;1.00;1.00;0.00
77320;PMS7003;66382;52.252;8.780;2023-05-16T12:10:03;1.00;1.00;1.00
77320;PMS7003;66382;52.252;8.780;2023-05-16T12:12:29;1.00;1.00;1.00
77320;PMS7003;66382;52.252;8.780;2023-05-16T12:14:55;0.00;0.00;0.00
77320;PMS7003;66382;52.252;8.780;2023-05-16T12:17:21;0.00;0.00;0.00
77320;PMS7003;66382;52.252;8.780;2023-05-16T12:19:47;1.00;1.00;1.00
77320;PMS7003;66382;52.252;8.780;2023-05-16T12:22:16;0.00;0.00;0.00
77320;PMS7003;66382;52.252;8.780;2023-05-16T12:24:42;0.75;0.75;0.50
77320;PMS7003;66382;52.252;8.780;2023-05-16T12:27:07;0.00;0.00;0.00
77320;PMS7003;66382;52.252;8.780;2023-05-16T12:29:33;0.00;0.00;0.00
77320;PMS7003;66382;52.252;8.780;2023-05-16T12:31:59;1.00;1.00;1.00
77320;PMS7003;66382;52.252;8.780;2023-05-16T12:34:27;1.00;1.00;1.00
77320;PMS7003;66382;52.252;8.780;2023-05-16T12:36:53;1.00;1.00;0.75
77320;PMS7003;66382;52.252;8.780;2023-05-16T12:39:20;1.00;1.00;1.00
77320;PMS7003;66382;52.252;8.780;2023-05-16T12:41:46;0.33;0.33;0.00
77320;PMS7003;66382;52.252;8.780;2023-05-16T12:44:12;0.33;0.33;0.33
77320;PMS7003;66382;52.252;8.780;2023-05-16T12:46:42;1.00;1.00;1.00
77320;PMS7003;66382;52.252;8.780;2023-05-16T12:49:08;0.00;0.00;0.00
77320;PMS7003;66382;52.252;8.780;2023-05-16T12:51:34;0.33;0.33;0.00
77320;PMS7003;66382;52.252;8.780;2023-05-16T12:54:06;1.00;1.00;0.00
77320;PMS7003;66382;52.252;8.780;2023-05-16T12:56:34;1.00;1.00;1.00
77320;PMS7003;66382;52.252;8.780;2023-05-16T12:59:00;0.00;0.00;0.00
77320;PMS7003;66382;52.252;8.780;2023-05-16T13:01:25;0.00;0.00;0.00
77320;PMS7003;66382;52.252;8.780;2023-05-16T13:03:51;0.00;0.00;0.00
77320;PMS7003;66382;52.252;8.780;2023-05-16T13:06:17;0.00;0.00;0.00
77320;PMS7003;66382;52.252;8.780;2023-05-16T13:08:42;0.00;0.00;0.00
77320;PMS7003;66382;52.252;8.780;2023-05-16T13:11:08;0.00;0.00;0.00
77320;PMS7003;66382;52.252;8.780;2023-05-16T13:13:35;0.00;0.00;0.00
77320;PMS7003;66382;52.252;8.780;2023-05-16T13:16:01;0.00;0.00;0.00
77320;PMS7003;66382;52.252;8.780;2023-05-16T13:18:27;0.00;0.00;0.00
77320;PMS7003;66382;52.252;8.780;2023-05-16T13:20:52;0.00;0.00;0.00
77320;PMS7003;66382;52.252;8.780;2023-05-16T13:23:18;0.00;0.00;0.00
77320;PMS7003;66382;52.252;8.780;2023-05-16T13:25:44;0.00;0.00;0.00
77320;PMS7003;66382;52.252;8.780;2023-05-16T13:28:09;0.00;0.00;0.00
77320;PMS7003;66382;52.252;8.780;2023-05-16T13:30:36;0.00;0.00;0.00
77320;PMS7003;66382;52.252;8.780;2023-05-16T13:33:02;0.00;0.00;0.00
77320;PMS7003;66382;52.252;8.780;2023-05-16T13:35:28;0.00;0.00;0.00
77320;PMS7003;66382;52.252;8.780;2023-05-16T13:37:54;0.00;0.00;0.00
77320;PMS7003;66382;52.252;8.780;2023-05-16T13:40:19;0.00;0.00;0.00
77320;PMS7003;66382;52.252;8.780;2023-05-16T13:42:45;0.00;0.00;0.00
77320;PMS7003;66382;52.252;8.780;2023-05-16T13:45:11;0.00;0.00;0.00
77320;PMS7003;66382;52.252;8.780;2023-05-16T13:47:38;0.00;0.00;0.00
77320;PMS7003;66382;52.252;8.780;2023-05-16T13:50:04;0.00;0.00;0.00
77320;PMS7003;66382;52.252;8.780;2023-05-16T13:52:31;0.00;0.00;0.00
77320;PMS7003;66382;52.252;8.780;2023-05-16T13:54:56;0.00;0.00;0.00
77320;PMS7003;66382;52.252;8.780;2023-05-16T13:57:22;0.00;0.00;0.00
77320;PMS7003;66382;52.252;8.780;2023-05-16T13:59:48;0.00;0.00;0.00
77320;PMS7003;66382;52.252;8.780;2023-05-16T14:02:13;0.00;0.00;0.00
77320;PMS7003;66382;52.252;8.780;2023-05-16T14:04:40;0.00;0.00;0.00
77320;PMS7003;66382;52.252;8.780;2023-05-16T14:07:06;0.00;0.00;0.00
77320;PMS7003;66382;52.252;8.780;2023-05-16T14:09:32;0.00;0.00;0.00
77320;PMS7003;66382;52.252;8.780;2023-05-16T14:11:57;0.67;0.67;0.00
77320;PMS7003;66382;52.252;8.780;2023-05-16T14:14:23;0.33;0.33;0.00
77320;PMS7003;66382;52.252;8.780;2023-05-16T14:16:49;0.00;0.00;0.00
77320;PMS7003;66382;52.252;8.780;2023-05-16T14:19:14;1.00;1.00;1.00
77320;PMS7003;66382;52.252;8.780;2023-05-16T14:21:41;0.00;0.00;0.00